Time;durP1;ratioP1;P1;durP2;ratioP2;P2;SDS_P1;SDS_P2;PMS_P1;PMS_P2;Temp;Humidity;BMP_temperature;BMP_pressure;BME280_temperature;BME280_humidity;BME280_pressure;Samples;Min_cycle;Max_cycle;Signal;HPM_P1;HPM_P2
2021/12/13 00:01:11;;;;;;;54.95;19.75;;;9.90;97.40;;;;;;5057056;28;20049;-80
2021/12/13 00:03:48;;;;;;;69.25;21.92;;;10.00;97.40;;;;;;5065421;28;20152;-80
2021/12/13 00:06:32;;;;;;;66.00;22.00;;;9.90;97.30;;;;;;5069655;28;20126;-79
2021/12/13 00:09:07;;;;;;;68.05;21.45;;;9.90;97.30;;;;;;5065768;28;20055;-80
2021/12/13 00:11:40;;;;;;;37.58;18.70;;;9.90;97.40;;;;;;5055095;28;20056;-80
2021/12/13 00:14:12;;;;;;;72.07;21.02;;;9.90;97.30;;;;;;5064762;28;20054;-80
2021/12/13 00:16:43;;;;;;;65.15;20.33;;;9.90;97.30;;;;;;5064185;28;20079;-80
2021/12/13 00:19:14;;;;;;;58.42;19.58;;;9.90;97.30;;;;;;5072962;28;20058;-80
2021/12/13 00:21:46;;;;;;;56.13;19.90;;;9.80;97.10;;;;;;5068405;28;21241;-80
2021/12/13 00:24:21;;;;;;;54.83;18.25;;;9.80;97.10;;;;;;5074985;28;20049;-80
2021/12/13 00:26:59;;;;;;;54.25;17.77;;;9.80;97.10;;;;;;5048517;28;20064;-80
2021/12/13 00:29:37;;;;;;;49.80;19.42;;;9.80;97.10;;;;;;5075829;28;20055;-79
2021/12/13 00:32:13;;;;;;;53.53;19.08;;;9.80;97.10;;;;;;5066177;28;20063;-80
2021/12/13 00:34:45;;;;;;;52.38;18.58;;;9.80;97.10;;;;;;5059381;28;20838;-80
2021/12/13 00:37:16;;;;;;;52.88;19.10;;;9.70;97.00;;;;;;5072123;28;20404;-79
2021/12/13 00:40:14;;;;;;;59.53;18.27;;;9.70;97.10;;;;;;5072463;28;20045;-80
2021/12/13 00:42:57;;;;;;;73.00;18.85;;;9.70;97.00;;;;;;5060017;28;20758;-80
2021/12/13 00:45:34;;;;;;;61.40;19.40;;;9.60;97.00;;;;;;5069174;28;20786;-80
2021/12/13 00:48:05;;;;;;;63.80;20.27;;;9.60;97.10;;;;;;5049241;28;20468;-80
2021/12/13 00:50:35;;;;;;;55.58;18.70;;;9.60;97.10;;;;;;5067013;28;20858;-80
2021/12/13 00:53:03;;;;;;;73.20;21.00;;;9.60;97.10;;;;;;5073952;28;20052;-80
2021/12/13 00:55:33;;;;;;;50.03;18.33;;;9.60;97.10;;;;;;5067602;28;20855;-80
2021/12/13 00:58:23;;;;;;;52.60;19.33;;;9.50;97.00;;;;;;5062750;28;20113;-80
2021/12/13 01:00:56;;;;;;;58.53;19.83;;;9.50;97.00;;;;;;5073790;28;20139;-80
2021/12/13 01:03:43;;;;;;;65.95;19.30;;;9.50;97.10;;;;;;5067898;28;20053;-80
2021/12/13 01:06:43;;;;;;;50.65;17.13;;;9.50;97.10;;;;;;5076644;28;20156;-80
2021/12/13 01:09:59;;;;;;;50.55;16.77;;;9.50;97.10;;;;;;5062221;28;20128;-80
2021/12/13 01:12:28;;;;;;;43.35;15.27;;;9.40;97.00;;;;;;5072187;28;20061;-80
2021/12/13 01:15:00;;;;;;;43.35;15.35;;;9.40;97.10;;;;;;5056171;28;20038;-80
2021/12/13 01:17:55;;;;;;;51.03;15.98;;;9.40;97.00;;;;;;5068934;28;20173;-80
2021/12/13 01:20:33;;;;;;;32.70;14.23;;;9.40;97.10;;;;;;5072205;28;20064;-80
2021/12/13 01:23:12;;;;;;;66.60;15.70;;;9.30;96.90;;;;;;5048950;28;20057;-80
2021/12/13 01:26:03;;;;;;;68.40;15.77;;;9.30;96.90;;;;;;5077137;28;20083;-79
2021/12/13 01:28:34;;;;;;;67.10;15.43;;;9.30;96.90;;;;;;5073792;28;20497;-80
2021/12/13 01:31:14;;;;;;;43.78;15.00;;;9.30;96.90;;;;;;5058914;28;20132;-80
2021/12/13 01:33:45;;;;;;;57.25;14.93;;;9.30;96.90;;;;;;5072680;28;20685;-80
2021/12/13 01:36:17;;;;;;;62.45;14.98;;;9.20;96.90;;;;;;5070612;28;20549;-80
2021/12/13 01:38:51;;;;;;;47.40;13.18;;;9.20;96.90;;;;;;5060596;28;20136;-79
2021/12/13 01:41:28;;;;;;;41.78;12.60;;;9.20;96.90;;;;;;5067903;28;20049;-80
2021/12/13 01:44:02;;;;;;;44.75;12.45;;;9.20;96.80;;;;;;5071397;28;20057;-80
2021/12/13 01:46:36;;;;;;;53.35;12.52;;;9.10;96.80;;;;;;5073447;28;20052;-80
2021/12/13 01:49:04;;;;;;;38.63;10.80;;;9.10;96.80;;;;;;5070369;28;20490;-80
2021/12/13 01:51:33;;;;;;;37.38;10.45;;;9.10;96.80;;;;;;5065844;28;20144;-80
2021/12/13 01:54:14;;;;;;;48.65;10.90;;;9.10;96.90;;;;;;5068289;28;20071;-80
2021/12/13 02:02:53;;;;;;;54.10;10.70;;;9.10;96.90;;;;;;5063341;28;20519;-79
2021/12/13 02:05:24;;;;;;;27.92;9.35;;;9.00;96.90;;;;;;5067372;28;20045;-80
2021/12/13 02:08:11;;;;;;;29.60;11.10;;;9.00;96.90;;;;;;5070370;28;20091;-80
2021/12/13 02:10:43;;;;;;;29.88;10.70;;;9.00;96.90;;;;;;5074520;28;20053;-80
2021/12/13 02:13:21;;;;;;;40.83;12.82;;;9.00;96.90;;;;;;5073965;28;20037;-80
2021/12/13 02:18:52;;;;;;;46.08;13.52;;;9.00;96.90;;;;;;5069265;28;20060;-80
2021/12/13 02:21:31;;;;;;;44.65;13.43;;;9.00;96.80;;;;;;5069010;28;20075;-80
2021/12/13 02:24:09;;;;;;;79.88;15.73;;;9.00;96.90;;;;;;5069227;28;20057;-80
2021/12/13 02:26:41;;;;;;;56.05;14.80;;;8.90;96.80;;;;;;5071517;28;20137;-80
2021/12/13 02:29:35;;;;;;;42.45;16.52;;;9.00;96.80;;;;;;5073590;28;20509;-80
2021/12/13 02:32:09;;;;;;;68.75;17.27;;;9.00;97.00;;;;;;5074021;28;20053;-80
2021/12/13 02:34:38;;;;;;;67.07;18.02;;;9.00;97.00;;;;;;5058301;28;20045;-80
2021/12/13 02:37:06;;;;;;;52.50;16.90;;;9.00;97.00;;;;;;5063328;28;20703;-80
2021/12/13 02:39:40;;;;;;;67.30;18.63;;;9.00;97.00;;;;;;5059850;28;20062;-80
2021/12/13 02:42:09;;;;;;;81.80;19.83;;;9.00;97.00;;;;;;5065547;28;20042;-80
2021/12/13 02:44:49;;;;;;;84.10;18.35;;;9.00;97.00;;;;;;5065937;28;20045;-80
2021/12/13 02:47:33;;;;;;;52.05;17.40;;;9.00;96.90;;;;;;5073812;28;20874;-78
2021/12/13 02:50:06;;;;;;;53.67;19.88;;;9.00;97.00;;;;;;5050792;28;20053;-78
2021/12/13 02:52:33;;;;;;;68.88;20.73;;;9.00;96.90;;;;;;5063654;28;20054;-79
2021/12/13 02:55:10;;;;;;;80.32;21.92;;;9.00;97.00;;;;;;5065269;28;20069;-79
2021/12/13 02:57:42;;;;;;;74.88;22.00;;;9.00;97.00;;;;;;5059542;28;20049;-78
2021/12/13 03:00:30;;;;;;;68.93;20.50;;;9.00;97.00;;;;;;5070284;28;20542;-79
2021/12/13 03:03:02;;;;;;;89.28;22.25;;;9.00;97.00;;;;;;5067309;28;20049;-78
2021/12/13 03:05:35;;;;;;;62.65;23.35;;;9.00;97.00;;;;;;5042184;28;20112;-81
2021/12/13 03:08:09;;;;;;;100.38;25.92;;;9.00;97.00;;;;;;5067473;28;20048;-78
2021/12/13 03:10:43;;;;;;;69.35;24.77;;;9.00;97.00;;;;;;5059632;28;20049;-78
2021/12/13 03:13:10;;;;;;;81.35;26.90;;;9.00;97.00;;;;;;5055870;28;20087;-78
2021/12/13 03:15:37;;;;;;;78.38;26.15;;;9.00;97.00;;;;;;5067481;28;20060;-78
2021/12/13 03:18:12;;;;;;;143.52;29.67;;;9.00;97.00;;;;;;5070413;28;20141;-78
2021/12/13 03:21:08;;;;;;;107.53;28.10;;;9.00;97.10;;;;;;5076352;28;20060;-78
2021/12/13 03:24:06;;;;;;;98.18;28.75;;;9.00;97.00;;;;;;5056612;28;20137;-78
2021/12/13 03:27:00;;;;;;;124.28;28.67;;;9.00;97.00;;;;;;5060967;28;20788;-78
2021/12/13 03:29:27;;;;;;;68.80;25.65;;;9.00;97.00;;;;;;5070246;28;20158;-78
2021/12/13 03:31:57;;;;;;;79.78;28.48;;;8.90;97.00;;;;;;5066170;28;20049;-78
2021/12/13 03:34:32;;;;;;;65.32;27.17;;;8.90;97.00;;;;;;5072979;28;20049;-78
2021/12/13 03:37:09;;;;;;;80.05;28.08;;;8.90;97.00;;;;;;5060292;28;20050;-78
2021/12/13 03:39:40;;;;;;;108.43;28.60;;;9.00;97.00;;;;;;5054002;28;20152;-78
2021/12/13 03:42:12;;;;;;;93.30;27.48;;;9.00;97.00;;;;;;5070630;28;20060;-79
2021/12/13 03:44:46;;;;;;;81.75;26.10;;;9.00;96.90;;;;;;5071408;28;20049;-78
2021/12/13 03:47:37;;;;;;;92.40;26.52;;;8.90;96.90;;;;;;5062699;28;20503;-78
2021/12/13 03:50:09;;;;;;;59.03;24.15;;;8.90;96.90;;;;;;5064428;28;20051;-78
2021/12/13 03:52:41;;;;;;;49.70;23.17;;;8.90;96.90;;;;;;5059630;28;20104;-78
2021/12/13 03:55:10;;;;;;;56.95;24.58;;;8.90;96.90;;;;;;5072754;28;20340;-78
2021/12/13 03:57:48;;;;;;;49.63;22.90;;;9.00;96.90;;;;;;5061074;28;20128;-78
2021/12/13 04:00:19;;;;;;;103.95;25.38;;;9.00;96.90;;;;;;5070676;28;20101;-78
2021/12/13 04:02:47;;;;;;;42.13;20.42;;;8.90;96.80;;;;;;5069587;28;20064;-78
2021/12/13 04:05:19;;;;;;;73.70;24.20;;;8.90;96.80;;;;;;5057275;28;20508;-79
2021/12/13 04:07:52;;;;;;;59.35;23.80;;;8.90;96.80;;;;;;5071630;28;20055;-79
2021/12/13 04:10:27;;;;;;;;;;;8.90;96.80;;;;;;5060929;28;20068;-79
2021/12/13 04:12:57;;;;;;;56.25;20.48;;;8.90;96.70;;;;;;5057664;28;19947;-79
2021/12/13 04:19:11;;;;;;;45.40;20.90;;;8.90;96.70;;;;;;5042716;28;20053;-78
2021/12/13 04:21:55;;;;;;;52.60;20.73;;;8.90;96.70;;;;;;5063270;28;20053;-78
2021/12/13 04:24:36;;;;;;;49.50;20.40;;;8.90;96.70;;;;;;5059300;28;20140;-79
2021/12/13 04:27:26;;;;;;;47.58;20.42;;;8.90;96.60;;;;;;5062104;28;20694;-78
2021/12/13 04:29:56;;;;;;;40.67;20.23;;;8.90;96.60;;;;;;5058639;28;20056;-78
2021/12/13 04:32:28;;;;;;;38.03;20.40;;;8.80;96.60;;;;;;5061137;28;20060;-79
2021/12/13 04:34:59;;;;;;;42.53;20.02;;;8.90;96.40;;;;;;5056829;28;20064;-79
2021/12/13 04:37:32;;;;;;;36.05;18.85;;;8.90;96.40;;;;;;5068639;28;20046;-78
2021/12/13 04:40:04;;;;;;;52.05;20.60;;;8.90;96.20;;;;;;5057548;28;20050;-79
2021/12/13 04:42:31;;;;;;;46.20;22.33;;;8.90;96.20;;;;;;5063359;28;20053;-79
2021/12/13 04:45:24;;;;;;;51.38;20.92;;;8.90;96.20;;;;;;5054059;28;20292;-79
2021/12/13 04:47:58;;;;;;;54.85;21.35;;;8.80;96.20;;;;;;5056892;28;20797;-81
2021/12/13 04:50:29;;;;;;;52.15;20.80;;;8.80;96.30;;;;;;5060724;28;20482;-79
2021/12/13 04:52:57;;;;;;;45.35;21.52;;;8.80;96.40;;;;;;5062448;28;20057;-79
2021/12/13 04:55:31;;;;;;;42.53;20.55;;;8.80;96.40;;;;;;5059942;28;20139;-79
2021/12/13 04:58:02;;;;;;;42.40;20.65;;;8.80;96.40;;;;;;5056797;28;20060;-79
2021/12/13 05:00:32;;;;;;;55.80;22.35;;;8.80;96.40;;;;;;5060690;28;20045;-79
2021/12/13 05:03:03;;;;;;;72.28;23.65;;;8.80;96.40;;;;;;5057002;28;20057;-79
2021/12/13 05:05:32;;;;;;;66.97;23.65;;;8.80;96.40;;;;;;5059609;28;20053;-80
2021/12/13 05:07:59;;;;;;;44.92;20.55;;;8.80;96.40;;;;;;5060840;28;20050;-79
2021/12/13 05:10:30;;;;;;;42.03;20.35;;;8.70;96.40;;;;;;5064807;28;20195;-79
2021/12/13 05:13:10;;;;;;;37.35;19.45;;;8.70;96.50;;;;;;5059161;28;20057;-79
2021/12/13 05:15:41;;;;;;;58.03;22.48;;;8.70;96.50;;;;;;5069075;28;20057;-79
2021/12/13 05:18:22;;;;;;;53.65;21.98;;;8.80;96.30;;;;;;5068354;28;20450;-79
2021/12/13 05:21:01;;;;;;;44.30;19.65;;;8.80;96.30;;;;;;5067431;28;20954;-78
2021/12/13 05:23:32;;;;;;;64.60;23.35;;;8.80;96.20;;;;;;5063345;28;20055;-79
2021/12/13 05:26:05;;;;;;;46.33;21.83;;;8.80;96.10;;;;;;5060377;28;20079;-79
2021/12/13 05:28:44;;;;;;;53.20;21.07;;;8.80;96.10;;;;;;5057334;28;20052;-79
2021/12/13 05:31:19;;;;;;;35.13;19.08;;;8.80;96.20;;;;;;5061651;28;21055;-79
2021/12/13 05:33:55;;;;;;;58.33;21.63;;;8.70;96.20;;;;;;5072575;28;20045;-79
2021/12/13 05:36:25;;;;;;;58.30;21.52;;;8.70;96.20;;;;;;5062800;28;20050;-78
2021/12/13 05:39:09;;;;;;;51.08;21.48;;;8.70;96.30;;;;;;5066942;28;20034;-79
2021/12/13 05:41:37;;;;;;;55.40;22.15;;;8.70;96.40;;;;;;5061870;28;20092;-79
2021/12/13 05:44:08;;;;;;;36.03;19.50;;;8.70;96.30;;;;;;5058686;28;20902;-79
2021/12/13 05:46:40;;;;;;;40.17;19.10;;;8.70;96.30;;;;;;5064387;28;20083;-78
2021/12/13 05:49:16;;;;;;;47.72;20.65;;;8.70;96.30;;;;;;5059990;28;20038;-79
2021/12/13 05:51:46;;;;;;;39.33;20.08;;;8.70;96.20;;;;;;5056237;28;20500;-79
2021/12/13 05:54:20;;;;;;;64.15;22.85;;;8.70;96.10;;;;;;5059187;28;20866;-79
2021/12/13 05:57:10;;;;;;;35.53;19.30;;;8.70;96.10;;;;;;5059877;28;20088;-79
2021/12/13 05:59:55;;;;;;;37.65;19.20;;;8.70;96.10;;;;;;5064056;28;20049;-78
2021/12/13 06:02:55;;;;;;;59.17;22.35;;;8.70;96.10;;;;;;5066649;28;20068;-79
2021/12/13 06:05:32;;;;;;;60.20;21.40;;;8.70;96.10;;;;;;5062871;28;20096;-78
2021/12/13 06:08:13;;;;;;;60.95;22.77;;;8.70;96.10;;;;;;5052727;28;20454;-79
2021/12/13 06:10:47;;;;;;;40.35;20.42;;;8.60;96.10;;;;;;5063563;28;20099;-79
2021/12/13 06:13:46;;;;;;;44.08;21.95;;;8.70;96.10;;;;;;5066039;28;20166;-78
2021/12/13 06:16:23;;;;;;;66.38;23.77;;;8.60;96.10;;;;;;5056610;28;20691;-79
2021/12/13 06:19:31;;;;;;;54.67;21.88;;;8.60;96.20;;;;;;5056114;28;20053;-78
2021/12/13 06:22:16;;;;;;;54.22;21.75;;;8.60;96.20;;;;;;5020147;28;20037;-78
2021/12/13 06:25:18;;;;;;;62.75;22.63;;;8.60;96.10;;;;;;5048440;28;20056;-78
2021/12/13 06:27:59;;;;;;;52.25;20.65;;;8.60;96.20;;;;;;5037931;28;20144;-79
2021/12/13 06:30:38;;;;;;;43.67;21.70;;;8.60;96.20;;;;;;5047702;28;20535;-79
2021/12/13 06:33:11;;;;;;;63.28;24.45;;;8.60;96.20;;;;;;5059942;28;20053;-79
2021/12/13 06:35:47;;;;;;;63.20;24.63;;;8.60;96.10;;;;;;5060622;28;20041;-79
2021/12/13 06:38:57;;;;;;;68.35;24.13;;;8.60;96.20;;;;;;5059243;28;20041;-79
2021/12/13 06:41:32;;;;;;;77.30;23.23;;;8.60;96.20;;;;;;5039926;28;20065;-79
2021/12/13 06:44:27;;;;;;;60.97;24.75;;;8.60;96.20;;;;;;5043493;28;20069;-79
2021/12/13 06:47:07;;;;;;;57.53;22.58;;;8.50;96.10;;;;;;5056711;28;20529;-79
2021/12/13 06:49:53;;;;;;;61.10;23.90;;;8.60;96.10;;;;;;5060006;28;20060;-79
2021/12/13 06:52:40;;;;;;;78.82;24.83;;;8.60;96.10;;;;;;5059982;28;20370;-79
2021/12/13 06:55:12;;;;;;;48.05;22.55;;;8.60;96.10;;;;;;5048818;28;20053;-79
2021/12/13 06:57:57;;;;;;;53.10;23.42;;;8.60;95.90;;;;;;5059303;28;20881;-79
2021/12/13 07:00:32;;;;;;;76.38;25.90;;;8.60;95.90;;;;;;5061084;28;20064;-79
2021/12/13 07:03:20;;;;;;;55.72;23.10;;;8.50;95.90;;;;;;5049203;28;20049;-79
2021/12/13 07:05:59;;;;;;;58.70;24.63;;;8.50;95.90;;;;;;5041187;28;20076;-79
2021/12/13 07:08:47;;;;;;;56.45;23.17;;;8.50;96.00;;;;;;5058723;28;20056;-79
2021/12/13 07:11:57;;;;;;;94.47;25.38;;;8.50;95.90;;;;;;5049517;28;20075;-78
2021/12/13 07:14:46;;;;;;;57.08;22.77;;;8.50;95.90;;;;;;5058915;28;20053;-79
2021/12/13 07:17:30;;;;;;;55.60;22.65;;;8.50;95.90;;;;;;5047403;28;20081;-79
2021/12/13 07:19:58;;;;;;;62.58;23.17;;;8.50;96.00;;;;;;5042872;28;20176;-79
2021/12/13 07:22:30;;;;;;;61.42;22.42;;;8.50;95.80;;;;;;5060201;28;20070;-79
2021/12/13 07:25:16;;;;;;;66.35;24.35;;;8.50;95.90;;;;;;5053697;28;20904;-79
2021/12/13 07:27:49;;;;;;;69.90;24.92;;;8.50;95.90;;;;;;5047927;28;20050;-79
2021/12/13 07:30:25;;;;;;;53.63;22.58;;;8.50;95.90;;;;;;5069203;28;20144;-79
2021/12/13 07:32:59;;;;;;;68.53;23.75;;;8.50;95.80;;;;;;5066801;28;21067;-78
2021/12/13 07:35:36;;;;;;;70.13;24.38;;;8.50;95.80;;;;;;5070064;28;20040;-79
2021/12/13 07:38:20;;;;;;;78.40;24.05;;;8.50;95.70;;;;;;5062939;28;20061;-79
2021/12/13 07:41:00;;;;;;;63.58;24.42;;;8.50;95.70;;;;;;5064640;28;20057;-79
2021/12/13 07:43:38;;;;;;;59.67;24.42;;;8.50;95.70;;;;;;5066408;28;20387;-78
2021/12/13 07:46:27;;;;;;;64.68;23.92;;;8.50;95.60;;;;;;5059510;28;20049;-78
2021/12/13 07:49:07;;;;;;;55.95;23.20;;;8.50;95.40;;;;;;5056314;28;20049;-79
2021/12/13 07:51:36;;;;;;;96.72;26.15;;;8.50;95.60;;;;;;5041906;28;20053;-78
2021/12/13 07:54:11;;;;;;;84.10;25.85;;;8.50;95.70;;;;;;5048151;28;20052;-79
2021/12/13 07:56:51;;;;;;;71.00;26.38;;;8.50;95.80;;;;;;5055336;28;20132;-78
2021/12/13 07:59:27;;;;;;;70.75;24.35;;;8.50;95.90;;;;;;5064982;28;20057;-78
2021/12/13 08:02:23;;;;;;;102.97;27.05;;;8.50;95.70;;;;;;5066864;28;20049;-78
2021/12/13 08:05:13;;;;;;;86.57;25.98;;;8.50;95.80;;;;;;5060732;28;20275;-78
2021/12/13 08:07:50;;;;;;;69.05;24.73;;;8.50;95.70;;;;;;5053426;28;20159;-78
2021/12/13 08:10:34;;;;;;;65.13;24.38;;;8.50;95.80;;;;;;5047851;28;20135;-79
2021/12/13 08:13:25;;;;;;;75.90;24.75;;;8.50;95.90;;;;;;5064163;28;20105;-78
2021/12/13 08:15:56;;;;;;;60.13;23.40;;;8.50;95.90;;;;;;5073435;28;20924;-78
2021/12/13 08:18:35;;;;;;;76.65;22.77;;;8.60;95.90;;;;;;5064851;28;20053;-78
2021/12/13 08:21:27;;;;;;;53.03;21.65;;;8.60;95.70;;;;;;5066390;28;20045;-78
2021/12/13 08:24:01;;;;;;;62.40;23.10;;;8.60;95.60;;;;;;5068995;28;20830;-78
2021/12/13 08:26:39;;;;;;;61.08;22.73;;;8.60;95.60;;;;;;5049984;28;20893;-78
2021/12/13 08:29:27;;;;;;;81.63;23.85;;;8.60;95.60;;;;;;5052386;28;20061;-78
2021/12/13 08:31:55;;;;;;;59.53;21.73;;;8.60;95.50;;;;;;5069618;28;20037;-79
2021/12/13 08:34:30;;;;;;;68.53;23.25;;;8.60;95.40;;;;;;5076496;28;20059;-78
2021/12/13 08:37:17;;;;;;;47.55;21.15;;;8.60;95.40;;;;;;5074761;28;20444;-78
2021/12/13 08:40:36;;;;;;;48.30;21.25;;;8.60;95.30;;;;;;5072807;28;20574;-78
2021/12/13 08:43:17;;;;;;;48.72;20.42;;;8.60;95.20;;;;;;5036908;28;20053;-78
2021/12/13 08:45:54;;;;;;;43.35;20.83;;;8.60;95.30;;;;;;5067174;28;20179;-78
2021/12/13 08:48:22;;;;;;;70.60;21.60;;;8.60;95.20;;;;;;5072192;28;20092;-79
2021/12/13 08:50:53;;;;;;;61.58;21.15;;;8.60;95.20;;;;;;5071746;28;20050;-79
2021/12/13 08:53:29;;;;;;;46.25;19.50;;;8.60;95.30;;;;;;5072465;28;20096;-79
2021/12/13 08:56:06;;;;;;;56.45;21.15;;;8.60;95.40;;;;;;5060689;28;20045;-79
2021/12/13 08:58:34;;;;;;;44.58;20.05;;;8.60;95.40;;;;;;5062595;28;20109;-78
2021/12/13 09:01:10;;;;;;;44.53;19.20;;;8.70;95.30;;;;;;5067223;28;20050;-79
2021/12/13 09:03:50;;;;;;;57.55;20.67;;;8.70;95.20;;;;;;5070955;28;20128;-78
2021/12/13 09:06:16;;;;;;;55.33;21.00;;;8.70;95.10;;;;;;5081336;28;20215;-79
2021/12/13 09:08:43;;;;;;;48.50;19.23;;;8.70;95.00;;;;;;5073153;28;20042;-79
2021/12/13 09:11:34;;;;;;;48.28;20.65;;;8.70;95.00;;;;;;5074560;28;20041;-78
2021/12/13 09:14:19;;;;;;;62.90;19.95;;;8.70;95.00;;;;;;5073072;28;20041;-78
2021/12/13 09:17:23;;;;;;;51.00;19.73;;;8.70;95.10;;;;;;5074289;28;20106;-79
2021/12/13 09:20:23;;;;;;;46.85;18.98;;;8.70;95.20;;;;;;5024670;28;20045;-78
2021/12/13 09:23:05;;;;;;;43.85;18.33;;;8.70;95.40;;;;;;5075624;28;20331;-79
2021/12/13 09:25:34;;;;;;;50.40;19.48;;;8.80;95.40;;;;;;5075236;28;20056;-78
2021/12/13 09:28:13;;;;;;;47.22;19.33;;;8.80;95.10;;;;;;5074791;28;20091;-80
2021/12/13 09:31:00;;;;;;;35.63;17.63;;;8.80;94.80;;;;;;5068056;28;20054;-78
2021/12/13 09:33:46;;;;;;;39.40;18.65;;;8.80;94.80;;;;;;5082945;28;20045;-79
2021/12/13 09:36:23;;;;;;;47.78;18.40;;;8.80;94.90;;;;;;5076876;28;20140;-79
2021/12/13 09:39:04;;;;;;;53.22;19.75;;;8.80;95.10;;;;;;5075531;28;20045;-79
2021/12/13 09:41:44;;;;;;;58.63;18.60;;;8.80;95.20;;;;;;5071922;28;20068;-78
2021/12/13 09:44:11;;;;;;;39.13;17.38;;;8.80;95.20;;;;;;5058723;28;20127;-78
2021/12/13 09:46:51;;;;;;;45.30;18.52;;;8.80;95.20;;;;;;5072912;28;20850;-79
2021/12/13 09:49:27;;;;;;;61.28;18.88;;;8.80;95.10;;;;;;5070649;28;20053;-79
2021/12/13 09:52:03;;;;;;;54.55;18.35;;;8.80;95.20;;;;;;5077941;28;20045;-78
2021/12/13 09:54:37;;;;;;;43.35;17.88;;;8.80;95.10;;;;;;5072206;28;20049;-78
2021/12/13 09:57:12;;;;;;;44.92;17.02;;;8.80;94.90;;;;;;5075200;28;20043;-78
2021/12/13 10:00:00;;;;;;;49.58;17.88;;;8.90;95.10;;;;;;5068170;28;20052;-78
2021/12/13 10:02:34;;;;;;;33.10;16.10;;;8.90;95.20;;;;;;5076305;28;20055;-78
2021/12/13 10:05:05;;;;;;;45.88;17.77;;;8.90;94.80;;;;;;5072206;28;20049;-78
2021/12/13 10:07:37;;;;;;;35.72;16.98;;;8.90;94.50;;;;;;5077916;28;20096;-78
2021/12/13 10:10:13;;;;;;;47.92;17.48;;;8.90;94.80;;;;;;5069903;28;20144;-79
2021/12/13 10:12:45;;;;;;;29.20;14.77;;;8.90;94.50;;;;;;5060980;28;20117;-78
2021/12/13 10:15:25;;;;;;;32.35;15.57;;;9.00;94.20;;;;;;5062170;28;20053;-78
2021/12/13 10:17:56;;;;;;;38.60;17.25;;;9.00;93.90;;;;;;5077676;28;20041;-78
2021/12/13 10:20:42;;;;;;;39.17;15.90;;;9.00;94.10;;;;;;5070461;28;20108;-78
2021/12/13 10:23:15;;;;;;;33.03;16.33;;;9.10;93.80;;;;;;5074606;28;20050;-78
2021/12/13 10:25:47;;;;;;;36.20;15.80;;;9.10;94.20;;;;;;5071986;28;20064;-78
2021/12/13 10:28:22;;;;;;;35.28;15.40;;;9.10;94.40;;;;;;5080927;28;20771;-78
2021/12/13 10:30:53;;;;;;;41.97;15.82;;;9.20;94.70;;;;;;5072512;28;20041;-78
2021/12/13 10:33:22;;;;;;;42.30;15.60;;;9.10;93.90;;;;;;5076754;28;20049;-78
2021/12/13 10:35:52;;;;;;;38.75;15.93;;;9.10;93.50;;;;;;5071064;28;20096;-78
2021/12/13 10:38:30;;;;;;;30.23;14.23;;;9.20;93.90;;;;;;5075952;28;20057;-78
2021/12/13 10:41:04;;;;;;;27.08;14.25;;;9.20;94.00;;;;;;5073655;28;20136;-78
2021/12/13 10:43:35;;;;;;;37.47;16.17;;;9.20;93.50;;;;;;5073452;28;20813;-78
2021/12/13 10:46:12;;;;;;;27.58;13.43;;;9.20;93.70;;;;;;5076373;28;20037;-78
2021/12/13 10:48:45;;;;;;;23.38;12.63;;;9.10;93.10;;;;;;5074252;28;20064;-78
2021/12/13 10:51:28;;;;;;;37.75;15.48;;;9.10;93.40;;;;;;5072118;28;20049;-78
2021/12/13 10:53:57;;;;;;;25.45;13.18;;;9.10;94.00;;;;;;5068185;28;20812;-78
2021/12/13 10:56:30;;;;;;;29.08;13.65;;;9.10;92.80;;;;;;5075040;28;20079;-78
2021/12/13 10:59:00;;;;;;;28.17;13.30;;;9.20;93.40;;;;;;5067239;28;20045;-77
2021/12/13 11:01:40;;;;;;;26.13;12.00;;;9.20;93.80;;;;;;5069800;28;20108;-78
2021/12/13 11:04:13;;;;;;;27.65;12.50;;;9.20;93.10;;;;;;5072538;28;20053;-77
2021/12/13 11:06:47;;;;;;;29.73;13.15;;;9.20;92.40;;;;;;5073605;28;20053;-77
2021/12/13 11:09:20;;;;;;;31.88;13.77;;;9.20;93.20;;;;;;5063748;28;20065;-78
2021/12/13 11:12:23;;;;;;;30.85;13.30;;;9.30;93.60;;;;;;5062378;28;20055;-78
2021/12/13 11:15:12;;;;;;;25.10;12.65;;;9.30;92.90;;;;;;5065428;28;20053;-78
2021/12/13 11:17:44;;;;;;;25.35;12.85;;;9.30;92.70;;;;;;5072919;28;20056;-78
2021/12/13 11:20:32;;;;;;;26.65;12.65;;;9.30;93.40;;;;;;5071572;28;20109;-78
2021/12/13 11:23:04;;;;;;;25.77;12.75;;;9.30;93.20;;;;;;5068240;28;20529;-78
2021/12/13 11:25:44;;;;;;;25.42;12.32;;;9.40;93.20;;;;;;5065584;28;20107;-78
2021/12/13 11:28:17;;;;;;;23.20;11.75;;;9.30;92.70;;;;;;5072059;28;20073;-78
2021/12/13 11:31:00;;;;;;;30.05;13.02;;;9.40;92.90;;;;;;5065611;28;20045;-79
2021/12/13 11:33:41;;;;;;;27.92;13.35;;;9.40;93.30;;;;;;5071559;28;20140;-79
2021/12/13 11:36:50;;;;;;;25.65;13.02;;;9.40;93.60;;;;;;5071031;28;20108;-78
2021/12/13 11:39:56;;;;;;;23.50;11.55;;;9.50;93.70;;;;;;5074783;28;20826;-78
2021/12/13 11:42:53;;;;;;;24.40;12.40;;;9.50;92.30;;;;;;5076836;28;20093;-78
2021/12/13 11:45:58;;;;;;;27.10;11.23;;;9.50;92.80;;;;;;5069156;28;20045;-78
2021/12/13 11:48:45;;;;;;;23.15;12.63;;;9.50;91.90;;;;;;5063856;28;20042;-78
2021/12/13 11:51:56;;;;;;;19.85;9.98;;;9.60;92.40;;;;;;5066882;28;20042;-78
2021/12/13 11:54:47;;;;;;;25.88;12.10;;;9.50;91.20;;;;;;4973082;28;20040;-78
2021/12/13 11:57:44;;;;;;;22.08;11.52;;;9.60;92.20;;;;;;4979685;28;20043;-78
2021/12/13 12:00:36;;;;;;;25.17;12.07;;;9.60;92.80;;;;;;4966015;28;20059;-78
2021/12/13 12:03:40;;;;;;;21.50;11.15;;;9.70;92.80;;;;;;4969564;28;20059;-78
2021/12/13 12:06:45;;;;;;;20.42;11.13;;;9.70;92.60;;;;;;4979421;28;20130;-78
2021/12/13 12:09:49;;;;;;;21.98;11.55;;;9.70;93.30;;;;;;4956232;28;20384;-78
2021/12/13 12:12:49;;;;;;;23.48;10.65;;;9.70;92.80;;;;;;4978399;28;20055;-78
2021/12/13 12:15:17;;;;;;;19.10;9.30;;;9.70;91.40;;;;;;4967545;28;20061;-78
2021/12/13 12:17:44;;;;;;;22.52;10.80;;;9.70;92.20;;;;;;4973800;28;20703;-78
2021/12/13 12:20:26;;;;;;;25.25;10.80;;;9.70;92.40;;;;;;4968891;28;20126;-78
2021/12/13 12:23:25;;;;;;;19.92;9.60;;;9.60;91.70;;;;;;4964500;28;20138;-78
2021/12/13 12:25:55;;;;;;;17.25;9.50;;;9.60;90.60;;;;;;4962492;28;20071;-78
2021/12/13 12:28:28;;;;;;;17.73;9.18;;;9.60;91.20;;;;;;5020724;28;20499;-78
2021/12/13 12:31:00;;;;;;;19.92;10.07;;;9.60;89.40;;;;;;5045321;28;20076;-78
2021/12/13 12:33:33;;;;;;;20.00;9.88;;;9.60;91.20;;;;;;5072825;28;20111;-78
2021/12/13 12:36:05;;;;;;;26.33;9.95;;;9.60;91.60;;;;;;5063639;28;20053;-78
2021/12/13 12:38:35;;;;;;;17.50;9.43;;;9.60;92.10;;;;;;5066164;28;20128;-78
2021/12/13 12:41:14;;;;;;;19.17;10.10;;;9.60;92.10;;;;;;5052111;28;20045;-78
2021/12/13 12:43:52;;;;;;;21.52;10.52;;;9.60;92.40;;;;;;5046743;28;20146;-78
2021/12/13 12:46:22;;;;;;;16.40;9.60;;;9.60;91.90;;;;;;5051516;28;20859;-79
2021/12/13 12:48:53;;;;;;;18.23;10.38;;;9.60;91.70;;;;;;5068860;28;20057;-78
2021/12/13 12:51:28;;;;;;;19.73;10.20;;;9.60;92.00;;;;;;5064791;28;20081;-78
2021/12/13 12:53:58;;;;;;;20.13;9.50;;;9.60;92.10;;;;;;5052793;28;20144;-78
2021/12/13 12:56:50;;;;;;;16.90;10.05;;;9.60;91.60;;;;;;5048600;28;20050;-78
2021/12/13 12:59:38;;;;;;;17.30;9.68;;;9.60;91.70;;;;;;5051265;28;20053;-78
2021/12/13 13:02:09;;;;;;;19.10;10.02;;;9.60;91.20;;;;;;5070669;28;20115;-78
2021/12/13 13:04:40;;;;;;;16.50;8.55;;;9.60;91.80;;;;;;5062966;28;20041;-78
2021/12/13 13:07:09;;;;;;;21.27;8.95;;;9.60;90.50;;;;;;5067328;28;20053;-78
2021/12/13 13:09:40;;;;;;;18.77;9.95;;;9.50;90.50;;;;;;5063401;28;20053;-78
2021/12/13 13:12:12;;;;;;;21.02;10.85;;;9.50;91.10;;;;;;5067563;28;20053;-78
2021/12/13 13:14:48;;;;;;;18.67;9.57;;;9.60;91.60;;;;;;5062727;28;20049;-79
2021/12/13 13:17:23;;;;;;;19.05;10.57;;;9.50;90.70;;;;;;5054198;28;20049;-78
2021/12/13 13:19:50;;;;;;;18.80;10.43;;;9.60;91.40;;;;;;5074155;28;20041;-78
2021/12/13 13:22:29;;;;;;;21.52;11.23;;;9.50;91.50;;;;;;5072979;28;20099;-78
2021/12/13 13:25:37;;;;;;;17.90;10.07;;;9.50;92.00;;;;;;5058178;28;20045;-78
2021/12/13 13:28:15;;;;;;;23.50;10.57;;;9.50;91.80;;;;;;5071197;28;20041;-78
2021/12/13 13:31:05;;;;;;;21.23;10.77;;;9.50;92.10;;;;;;5070207;28;20045;-77
2021/12/13 13:33:40;;;;;;;22.23;10.45;;;9.50;92.20;;;;;;5063865;28;20045;-78
2021/12/13 13:36:21;;;;;;;19.42;10.00;;;9.50;92.20;;;;;;5070994;28;20058;-78
2021/12/13 13:38:51;;;;;;;18.20;9.32;;;9.50;92.30;;;;;;5053989;28;20057;-77
2021/12/13 13:41:21;;;;;;;16.38;9.85;;;9.50;90.50;;;;;;5064462;28;20049;-78
2021/12/13 13:43:54;;;;;;;21.20;9.43;;;9.50;91.80;;;;;;5072289;28;20053;-78
2021/12/13 13:46:24;;;;;;;18.88;9.55;;;9.40;91.90;;;;;;5069430;28;20061;-77
2021/12/13 13:48:54;;;;;;;21.90;10.07;;;9.40;91.00;;;;;;5066146;28;20057;-78